AWG8PZ LROP-LRCL
Flight info
| Callsign | AWG8PZ |
|---|---|
| Flight time | 0h 38m |
| Altitude | 24000 |
| Route | BUKEL DCT EDETA |
| Aircraft | A320/M-SDE3FGHIRWY/LB1 |
Departure
| Time | 2026-05-05 12:22 |
|---|---|
| Airport | Bucharest Henri Coandă International Airport (LROP) |
Arrival
| Time | 2026-05-05 13:01 |
|---|---|
| Airport | Avram Iancu Cluj International Airport (LRCL) |
| Time | Latitude | Longitude | Altitude | Speed | Heading |
|---|---|---|---|---|---|
| 2026-05-05 12:07 | 44.57026 | 26.08195 | 317 ft | 0 kts | 354° |
| 2026-05-05 12:15 | 44.57014 | 26.08196 | 338 ft | 4 kts | 356° |
| 2026-05-05 12:15 | 44.56987 | 26.08198 | 312 ft | 4 kts | 2° |
| 2026-05-05 12:15 | 44.56960 | 26.08193 | 314 ft | 4 kts | 21° |
| 2026-05-05 12:15 | 44.56942 | 26.08175 | 315 ft | 3 kts | 79° |
| 2026-05-05 12:16 | 44.56942 | 26.08170 | 315 ft | 0 kts | 84° |
| 2026-05-05 12:17 | 44.56946 | 26.08227 | 316 ft | 9 kts | 84° |
| 2026-05-05 12:18 | 44.56952 | 26.08315 | 316 ft | 9 kts | 84° |
| 2026-05-05 12:18 | 44.56978 | 26.08381 | 316 ft | 7 kts | 32° |
| 2026-05-05 12:18 | 44.57023 | 26.08387 | 316 ft | 6 kts | 352° |
| 2026-05-05 12:18 | 44.57068 | 26.08380 | 315 ft | 8 kts | 354° |
| 2026-05-05 12:19 | 44.57123 | 26.08372 | 315 ft | 7 kts | 354° |
| 2026-05-05 12:19 | 44.57190 | 26.08363 | 316 ft | 13 kts | 354° |
| 2026-05-05 12:19 | 44.57231 | 26.08432 | 317 ft | 9 kts | 83° |
| 2026-05-05 12:19 | 44.57259 | 26.08490 | 319 ft | 9 kts | 23° |
| 2026-05-05 12:20 | 44.57343 | 26.08486 | 321 ft | 12 kts | 353° |
| 2026-05-05 12:20 | 44.57417 | 26.08475 | 322 ft | 10 kts | 354° |
| 2026-05-05 12:20 | 44.57508 | 26.08462 | 324 ft | 14 kts | 354° |
| 2026-05-05 12:20 | 44.57587 | 26.08451 | 326 ft | 9 kts | 354° |
| 2026-05-05 12:21 | 44.57644 | 26.08445 | 325 ft | 7 kts | 356° |
| 2026-05-05 12:21 | 44.57668 | 26.08474 | 325 ft | 4 kts | 83° |
| 2026-05-05 12:21 | 44.57674 | 26.08556 | 328 ft | 27 kts | 84° |
| 2026-05-05 12:21 | 44.57724 | 26.09226 | 316 ft | 105 kts | 84° |
| 2026-05-05 12:22 | 44.57823 | 26.10528 | 319 ft | 161 kts | 83° |
| 2026-05-05 12:22 | 44.57958 | 26.12182 | 803 ft | 170 kts | 84° |
| 2026-05-05 12:22 | 44.58080 | 26.13832 | 1573 ft | 169 kts | 85° |
| 2026-05-05 12:22 | 44.58206 | 26.15514 | 2143 ft | 182 kts | 85° |
| 2026-05-05 12:23 | 44.58597 | 26.17297 | 2504 ft | 206 kts | 56° |
| 2026-05-05 12:23 | 44.59819 | 26.18500 | 2901 ft | 232 kts | 13° |
| 2026-05-05 12:23 | 44.61491 | 26.18321 | 3368 ft | 257 kts | 339° |
| 2026-05-05 12:23 | 44.63098 | 26.17122 | 4221 ft | 264 kts | 327° |
| 2026-05-05 12:24 | 44.64585 | 26.15610 | 5274 ft | 264 kts | 324° |
| 2026-05-05 12:24 | 44.66045 | 26.14028 | 6289 ft | 266 kts | 325° |
| 2026-05-05 12:24 | 44.67527 | 26.12445 | 7208 ft | 269 kts | 326° |
| 2026-05-05 12:24 | 44.69026 | 26.10856 | 8139 ft | 272 kts | 326° |
| 2026-05-05 12:25 | 44.70549 | 26.09245 | 9067 ft | 275 kts | 326° |
| 2026-05-05 12:25 | 44.72072 | 26.07632 | 9959 ft | 279 kts | 327° |
| 2026-05-05 12:25 | 44.73660 | 26.05949 | 10477 ft | 297 kts | 327° |
| 2026-05-05 12:25 | 44.75379 | 26.04131 | 10774 ft | 321 kts | 326° |
| 2026-05-05 12:26 | 44.77210 | 26.02187 | 11234 ft | 335 kts | 326° |
| 2026-05-05 12:26 | 44.79081 | 26.00184 | 11963 ft | 340 kts | 326° |
| 2026-05-05 12:26 | 44.80972 | 25.98150 | 12749 ft | 344 kts | 326° |
| 2026-05-05 12:26 | 44.82887 | 25.96092 | 13542 ft | 347 kts | 327° |
| 2026-05-05 12:27 | 44.84819 | 25.94020 | 14222 ft | 352 kts | 326° |
| 2026-05-05 12:27 | 44.86784 | 25.91910 | 14848 ft | 357 kts | 326° |
| 2026-05-05 12:27 | 44.88765 | 25.89777 | 15507 ft | 361 kts | 326° |
| 2026-05-05 12:27 | 44.90744 | 25.87644 | 16160 ft | 364 kts | 326° |
| 2026-05-05 12:28 | 44.92791 | 25.85436 | 16829 ft | 368 kts | 326° |
| 2026-05-05 12:28 | 44.94808 | 25.83262 | 17469 ft | 371 kts | 326° |
| 2026-05-05 12:28 | 44.96870 | 25.81042 | 18103 ft | 375 kts | 326° |
| 2026-05-05 12:28 | 44.98948 | 25.78798 | 18681 ft | 378 kts | 326° |
| 2026-05-05 12:29 | 45.01045 | 25.76533 | 19234 ft | 381 kts | 326° |
| 2026-05-05 12:29 | 45.03161 | 25.74249 | 19773 ft | 384 kts | 326° |
| 2026-05-05 12:29 | 45.05292 | 25.71942 | 20297 ft | 387 kts | 325° |
| 2026-05-05 12:29 | 45.07442 | 25.69615 | 20819 ft | 390 kts | 325° |
| 2026-05-05 12:30 | 45.09611 | 25.67268 | 21365 ft | 393 kts | 325° |
| 2026-05-05 12:30 | 45.11792 | 25.64906 | 21887 ft | 396 kts | 325° |
| 2026-05-05 12:30 | 45.13990 | 25.62521 | 22413 ft | 399 kts | 325° |
| 2026-05-05 12:30 | 45.16202 | 25.60111 | 22923 ft | 402 kts | 325° |
| 2026-05-05 12:31 | 45.18429 | 25.57684 | 23422 ft | 405 kts | 325° |
| 2026-05-05 12:31 | 45.20672 | 25.55237 | 23859 ft | 408 kts | 325° |
| 2026-05-05 12:31 | 45.22926 | 25.52772 | 24004 ft | 409 kts | 325° |
| 2026-05-05 12:31 | 45.25195 | 25.50286 | 24042 ft | 414 kts | 325° |
| 2026-05-05 12:32 | 45.27483 | 25.47786 | 24042 ft | 416 kts | 324° |
| 2026-05-05 12:32 | 45.29779 | 25.45277 | 24043 ft | 417 kts | 324° |
| 2026-05-05 12:32 | 45.32052 | 25.42787 | 24045 ft | 417 kts | 325° |
| 2026-05-05 12:32 | 45.34347 | 25.40270 | 24040 ft | 416 kts | 324° |
| 2026-05-05 12:33 | 45.36639 | 25.37753 | 24040 ft | 416 kts | 324° |
| 2026-05-05 12:33 | 45.38928 | 25.35239 | 24040 ft | 416 kts | 324° |
| 2026-05-05 12:33 | 45.41215 | 25.32723 | 24040 ft | 416 kts | 324° |
| 2026-05-05 12:33 | 45.43508 | 25.30201 | 24040 ft | 415 kts | 324° |
| 2026-05-05 12:34 | 45.45792 | 25.27690 | 24036 ft | 415 kts | 324° |
| 2026-05-05 12:34 | 45.48084 | 25.25168 | 24030 ft | 416 kts | 324° |
| 2026-05-05 12:34 | 45.50370 | 25.22647 | 24028 ft | 415 kts | 324° |
| 2026-05-05 12:34 | 45.52653 | 25.20123 | 24028 ft | 415 kts | 324° |
| 2026-05-05 12:35 | 45.54937 | 25.17594 | 24028 ft | 415 kts | 324° |
| 2026-05-05 12:35 | 45.57218 | 25.15060 | 24028 ft | 416 kts | 324° |
| 2026-05-05 12:35 | 45.59502 | 25.12523 | 24020 ft | 416 kts | 324° |
| 2026-05-05 12:35 | 45.61750 | 25.10029 | 24013 ft | 415 kts | 324° |
| 2026-05-05 12:36 | 45.64033 | 25.07490 | 24014 ft | 415 kts | 324° |
| 2026-05-05 12:36 | 45.66309 | 25.04952 | 24008 ft | 415 kts | 324° |
| 2026-05-05 12:36 | 45.68617 | 25.02374 | 24004 ft | 416 kts | 324° |
| 2026-05-05 12:36 | 45.70867 | 24.99857 | 24007 ft | 416 kts | 324° |
| 2026-05-05 12:37 | 45.73146 | 24.97308 | 24009 ft | 416 kts | 324° |
| 2026-05-05 12:37 | 45.75425 | 24.94760 | 24011 ft | 416 kts | 324° |
| 2026-05-05 12:37 | 45.77756 | 24.92317 | 24003 ft | 414 kts | 329° |
| 2026-05-05 12:37 | 45.80183 | 24.90095 | 24005 ft | 414 kts | 329° |
| 2026-05-05 12:38 | 45.82612 | 24.87869 | 24006 ft | 414 kts | 329° |
| 2026-05-05 12:38 | 45.85046 | 24.85636 | 24007 ft | 414 kts | 329° |
| 2026-05-05 12:38 | 45.87472 | 24.83407 | 24001 ft | 414 kts | 329° |
| 2026-05-05 12:38 | 45.89895 | 24.81178 | 23995 ft | 414 kts | 329° |
| 2026-05-05 12:39 | 45.92320 | 24.78945 | 23986 ft | 414 kts | 329° |
| 2026-05-05 12:39 | 45.94745 | 24.76701 | 23981 ft | 415 kts | 329° |
| 2026-05-05 12:39 | 45.97172 | 24.74449 | 23982 ft | 415 kts | 329° |
| 2026-05-05 12:39 | 45.99573 | 24.72221 | 23987 ft | 416 kts | 329° |
| 2026-05-05 12:40 | 46.02000 | 24.69968 | 23990 ft | 416 kts | 329° |
| 2026-05-05 12:40 | 46.04434 | 24.67708 | 23988 ft | 416 kts | 329° |
| 2026-05-05 12:40 | 46.06864 | 24.65453 | 23989 ft | 416 kts | 329° |
| 2026-05-05 12:40 | 46.09288 | 24.63202 | 23991 ft | 416 kts | 329° |
| 2026-05-05 12:41 | 46.11725 | 24.60931 | 23991 ft | 416 kts | 329° |
| 2026-05-05 12:41 | 46.14153 | 24.58662 | 23986 ft | 416 kts | 329° |
| 2026-05-05 12:41 | 46.16581 | 24.56392 | 23980 ft | 416 kts | 329° |
| 2026-05-05 12:41 | 46.19007 | 24.54125 | 23981 ft | 416 kts | 329° |
| 2026-05-05 12:42 | 46.21436 | 24.51854 | 23985 ft | 416 kts | 329° |
| 2026-05-05 12:42 | 46.23869 | 24.49583 | 23989 ft | 416 kts | 329° |
| 2026-05-05 12:42 | 46.26294 | 24.47317 | 23989 ft | 416 kts | 329° |
| 2026-05-05 12:42 | 46.28720 | 24.45046 | 23991 ft | 416 kts | 329° |
| 2026-05-05 12:43 | 46.31123 | 24.42791 | 23992 ft | 416 kts | 329° |
| 2026-05-05 12:43 | 46.33558 | 24.40501 | 23914 ft | 415 kts | 329° |
| 2026-05-05 12:43 | 46.35963 | 24.38233 | 23679 ft | 411 kts | 329° |
| 2026-05-05 12:43 | 46.38359 | 24.35971 | 23433 ft | 410 kts | 329° |
| 2026-05-05 12:44 | 46.40738 | 24.33726 | 23153 ft | 408 kts | 329° |
| 2026-05-05 12:44 | 46.43111 | 24.31488 | 22795 ft | 404 kts | 329° |
| 2026-05-05 12:44 | 46.45451 | 24.29281 | 22245 ft | 398 kts | 329° |
| 2026-05-05 12:44 | 46.47754 | 24.27101 | 21713 ft | 393 kts | 329° |
| 2026-05-05 12:45 | 46.50033 | 24.24938 | 21213 ft | 389 kts | 329° |
| 2026-05-05 12:45 | 46.52283 | 24.22801 | 20717 ft | 384 kts | 329° |
| 2026-05-05 12:45 | 46.54505 | 24.20691 | 20255 ft | 380 kts | 329° |
| 2026-05-05 12:45 | 46.56707 | 24.18602 | 19781 ft | 376 kts | 329° |
| 2026-05-05 12:46 | 46.58858 | 24.16559 | 19327 ft | 373 kts | 329° |
| 2026-05-05 12:46 | 46.61016 | 24.14505 | 18867 ft | 370 kts | 329° |
| 2026-05-05 12:46 | 46.63160 | 24.12461 | 18385 ft | 368 kts | 328° |
| 2026-05-05 12:46 | 46.65298 | 24.10422 | 17869 ft | 365 kts | 328° |
| 2026-05-05 12:47 | 46.67415 | 24.08403 | 17377 ft | 363 kts | 328° |
| 2026-05-05 12:47 | 46.69515 | 24.06394 | 16880 ft | 360 kts | 328° |
| 2026-05-05 12:47 | 46.71606 | 24.04388 | 16385 ft | 359 kts | 328° |
| 2026-05-05 12:47 | 46.73686 | 24.02383 | 15870 ft | 358 kts | 326° |
| 2026-05-05 12:48 | 46.75561 | 23.99991 | 15357 ft | 359 kts | 314° |
| 2026-05-05 12:48 | 46.77044 | 23.97060 | 14844 ft | 360 kts | 301° |
| 2026-05-05 12:48 | 46.78065 | 23.93715 | 14307 ft | 362 kts | 288° |
| 2026-05-05 12:48 | 46.78611 | 23.90150 | 13768 ft | 363 kts | 281° |
| 2026-05-05 12:49 | 46.79048 | 23.86585 | 13192 ft | 362 kts | 281° |
| 2026-05-05 12:49 | 46.79492 | 23.82970 | 12631 ft | 360 kts | 280° |
| 2026-05-05 12:49 | 46.79938 | 23.79385 | 12091 ft | 358 kts | 282° |
| 2026-05-05 12:49 | 46.80631 | 23.75903 | 11728 ft | 356 kts | 288° |
| 2026-05-05 12:50 | 46.81379 | 23.72469 | 11474 ft | 355 kts | 287° |
| 2026-05-05 12:50 | 46.82117 | 23.69025 | 11225 ft | 354 kts | 287° |
| 2026-05-05 12:50 | 46.82843 | 23.65600 | 10983 ft | 353 kts | 287° |
| 2026-05-05 12:50 | 46.83554 | 23.62221 | 10732 ft | 342 kts | 287° |
| 2026-05-05 12:51 | 46.84243 | 23.58947 | 10493 ft | 332 kts | 286° |
| 2026-05-05 12:51 | 46.84903 | 23.55757 | 10249 ft | 324 kts | 283° |
| 2026-05-05 12:51 | 46.85191 | 23.52552 | 10011 ft | 314 kts | 268° |
| 2026-05-05 12:51 | 46.84939 | 23.49441 | 9848 ft | 302 kts | 255° |
| 2026-05-05 12:52 | 46.84537 | 23.47532 | 9767 ft | 294 kts | 250° |
| 2026-05-05 12:52 | 46.83690 | 23.43829 | 9593 ft | 286 kts | 251° |
| 2026-05-05 12:52 | 46.83267 | 23.41974 | 9500 ft | 284 kts | 250° |
| 2026-05-05 12:52 | 46.82645 | 23.39247 | 9368 ft | 283 kts | 251° |
| 2026-05-05 12:53 | 46.81818 | 23.35632 | 9012 ft | 284 kts | 250° |
| 2026-05-05 12:53 | 46.81396 | 23.33785 | 8692 ft | 284 kts | 250° |
| 2026-05-05 12:53 | 46.80771 | 23.31056 | 8401 ft | 280 kts | 250° |
| 2026-05-05 12:53 | 46.80166 | 23.28414 | 8295 ft | 269 kts | 250° |
| 2026-05-05 12:54 | 46.78810 | 23.23641 | 8057 ft | 245 kts | 226° |
| 2026-05-05 12:54 | 46.77433 | 23.22358 | 7926 ft | 234 kts | 195° |
| 2026-05-05 12:54 | 46.75816 | 23.22358 | 7568 ft | 238 kts | 165° |
| 2026-05-05 12:55 | 46.74228 | 23.23136 | 7220 ft | 241 kts | 160° |
| 2026-05-05 12:55 | 46.72808 | 23.24442 | 6876 ft | 246 kts | 135° |
| 2026-05-05 12:55 | 46.71898 | 23.26550 | 6547 ft | 249 kts | 109° |
| 2026-05-05 12:55 | 46.71597 | 23.29032 | 6227 ft | 249 kts | 97° |
| 2026-05-05 12:56 | 46.71391 | 23.31530 | 5903 ft | 248 kts | 98° |
| 2026-05-05 12:56 | 46.71219 | 23.34023 | 5585 ft | 248 kts | 90° |
| 2026-05-05 12:56 | 46.71488 | 23.36491 | 5259 ft | 248 kts | 73° |
| 2026-05-05 12:56 | 46.72043 | 23.38873 | 4967 ft | 248 kts | 73° |
| 2026-05-05 12:57 | 46.72592 | 23.41267 | 4658 ft | 250 kts | 74° |
| 2026-05-05 12:57 | 46.73143 | 23.43682 | 4342 ft | 251 kts | 74° |
| 2026-05-05 12:57 | 46.73692 | 23.46084 | 4108 ft | 250 kts | 73° |
| 2026-05-05 12:57 | 46.74234 | 23.48458 | 3988 ft | 242 kts | 74° |
| 2026-05-05 12:58 | 46.74774 | 23.50789 | 3617 ft | 246 kts | 73° |
| 2026-05-05 12:58 | 46.75334 | 23.53148 | 3085 ft | 241 kts | 73° |
| 2026-05-05 12:58 | 46.75836 | 23.55326 | 2941 ft | 217 kts | 74° |
| 2026-05-05 12:58 | 46.76282 | 23.57348 | 2643 ft | 200 kts | 75° |
| 2026-05-05 12:59 | 46.76672 | 23.59165 | 2398 ft | 177 kts | 73° |
| 2026-05-05 12:59 | 46.77012 | 23.60768 | 2197 ft | 155 kts | 73° |
| 2026-05-05 12:59 | 46.77341 | 23.62239 | 1821 ft | 152 kts | 72° |
| 2026-05-05 13:00 | 46.77988 | 23.64998 | 1409 ft | 138 kts | 76° |
| 2026-05-05 13:00 | 46.78277 | 23.66333 | 1202 ft | 138 kts | 75° |
| 2026-05-05 13:01 | 46.78906 | 23.69135 | 1043 ft | 15 kts | 97° |
| 2026-05-05 13:01 | 46.78830 | 23.69202 | 1043 ft | 14 kts | 160° |
| 2026-05-05 13:01 | 46.78765 | 23.69234 | 1043 ft | 11 kts | 162° |
| 2026-05-05 13:01 | 46.78688 | 23.69270 | 1043 ft | 13 kts | 162° |
| 2026-05-05 13:02 | 46.78599 | 23.69313 | 1043 ft | 11 kts | 161° |
| 2026-05-05 13:02 | 46.78560 | 23.69322 | 1043 ft | 1 kts | 216° |
| 2026-05-05 13:02 | 46.78553 | 23.69302 | 1043 ft | 5 kts | 243° |
| 2026-05-05 13:02 | 46.78541 | 23.69255 | 1043 ft | 0 kts | 251° |